sensor_id;sensor_type;location;lat;lon;timestamp;pressure;altitude;pressure_sealevel;temperature
20736;BMP180;10528;52.124;5.196;2022-12-07T00:01:46;101693.00;;;11.00
20736;BMP180;10528;52.124;5.196;2022-12-07T00:04:17;101711.00;;;11.00
20736;BMP180;10528;52.124;5.196;2022-12-07T00:06:47;101701.00;;;11.00
20736;BMP180;10528;52.124;5.196;2022-12-07T00:09:17;101703.00;;;11.00
20736;BMP180;10528;52.124;5.196;2022-12-07T00:11:49;101706.00;;;11.00
20736;BMP180;10528;52.124;5.196;2022-12-07T00:14:17;101709.00;;;11.00
20736;BMP180;10528;52.124;5.196;2022-12-07T00:16:45;101716.00;;;11.00
20736;BMP180;10528;52.124;5.196;2022-12-07T00:19:13;101712.00;;;11.00
20736;BMP180;10528;52.124;5.196;2022-12-07T00:21:41;101703.00;;;11.00
20736;BMP180;10528;52.124;5.196;2022-12-07T00:24:10;101710.00;;;11.00
20736;BMP180;10528;52.124;5.196;2022-12-07T00:26:40;101706.00;;;10.90
20736;BMP180;10528;52.124;5.196;2022-12-07T00:29:20;101696.00;;;10.90
20736;BMP180;10528;52.124;5.196;2022-12-07T00:31:47;101695.00;;;10.90
20736;BMP180;10528;52.124;5.196;2022-12-07T00:34:18;101698.00;;;10.90
20736;BMP180;10528;52.124;5.196;2022-12-07T00:36:45;101682.00;;;10.80
20736;BMP180;10528;52.124;5.196;2022-12-07T00:39:13;101687.00;;;10.80
20736;BMP180;10528;52.124;5.196;2022-12-07T00:41:40;101680.00;;;10.80
20736;BMP180;10528;52.124;5.196;2022-12-07T00:44:07;101681.00;;;10.80
20736;BMP180;10528;52.124;5.196;2022-12-07T00:46:33;101675.00;;;10.80
20736;BMP180;10528;52.124;5.196;2022-12-07T00:49:00;101684.00;;;10.80
20736;BMP180;10528;52.124;5.196;2022-12-07T00:51:27;101677.00;;;10.70
20736;BMP180;10528;52.124;5.196;2022-12-07T00:53:54;101677.00;;;10.70
20736;BMP180;10528;52.124;5.196;2022-12-07T00:56:27;101684.00;;;10.60
20736;BMP180;10528;52.124;5.196;2022-12-07T00:59:00;101679.00;;;10.60
20736;BMP180;10528;52.124;5.196;2022-12-07T01:01:31;101680.00;;;10.60
20736;BMP180;10528;52.124;5.196;2022-12-07T01:03:58;101674.00;;;10.50
20736;BMP180;10528;52.124;5.196;2022-12-07T01:06:29;101674.00;;;10.50
20736;BMP180;10528;52.124;5.196;2022-12-07T01:08:56;101669.00;;;10.50
20736;BMP180;10528;52.124;5.196;2022-12-07T01:11:28;101680.00;;;10.50
20736;BMP180;10528;52.124;5.196;2022-12-07T01:13:58;101674.00;;;10.40
20736;BMP180;10528;52.124;5.196;2022-12-07T01:16:28;101684.00;;;10.40
20736;BMP180;10528;52.124;5.196;2022-12-07T01:18:58;101679.00;;;10.40
20736;BMP180;10528;52.124;5.196;2022-12-07T01:21:31;101676.00;;;10.40
20736;BMP180;10528;52.124;5.196;2022-12-07T01:24:05;101686.00;;;10.40
20736;BMP180;10528;52.124;5.196;2022-12-07T01:26:33;101682.00;;;10.40
20736;BMP180;10528;52.124;5.196;2022-12-07T01:29:00;101691.00;;;10.40
20736;BMP180;10528;52.124;5.196;2022-12-07T01:31:28;101691.00;;;10.30
20736;BMP180;10528;52.124;5.196;2022-12-07T01:33:58;101687.00;;;10.30
20736;BMP180;10528;52.124;5.196;2022-12-07T01:36:36;101681.00;;;10.30
20736;BMP180;10528;52.124;5.196;2022-12-07T01:39:06;101678.00;;;10.30
20736;BMP180;10528;52.124;5.196;2022-12-07T01:41:37;101677.00;;;10.30
20736;BMP180;10528;52.124;5.196;2022-12-07T01:44:28;101680.00;;;10.20
20736;BMP180;10528;52.124;5.196;2022-12-07T01:47:03;101676.00;;;10.20
20736;BMP180;10528;52.124;5.196;2022-12-07T01:49:41;101675.00;;;10.20
20736;BMP180;10528;52.124;5.196;2022-12-07T01:52:26;101687.00;;;10.20
20736;BMP180;10528;52.124;5.196;2022-12-07T01:55:02;101690.00;;;10.10
20736;BMP180;10528;52.124;5.196;2022-12-07T01:57:33;101687.00;;;10.10
20736;BMP180;10528;52.124;5.196;2022-12-07T02:00:01;101693.00;;;10.10
20736;BMP180;10528;52.124;5.196;2022-12-07T02:02:48;101684.00;;;10.10
20736;BMP180;10528;52.124;5.196;2022-12-07T02:05:19;101689.00;;;10.10
20736;BMP180;10528;52.124;5.196;2022-12-07T02:07:47;101689.00;;;10.10
20736;BMP180;10528;52.124;5.196;2022-12-07T02:10:21;101683.00;;;10.10
20736;BMP180;10528;52.124;5.196;2022-12-07T02:16:21;101672.00;;;10.20
20736;BMP180;10528;52.124;5.196;2022-12-07T02:24:53;101682.00;;;10.30
20736;BMP180;10528;52.124;5.196;2022-12-07T02:27:56;101677.00;;;10.30
20736;BMP180;10528;52.124;5.196;2022-12-07T02:30:35;101668.00;;;10.30
20736;BMP180;10528;52.124;5.196;2022-12-07T02:33:11;101667.00;;;10.40
20736;BMP180;10528;52.124;5.196;2022-12-07T02:36:06;101660.00;;;10.40
20736;BMP180;10528;52.124;5.196;2022-12-07T02:38:58;101656.00;;;10.40
20736;BMP180;10528;52.124;5.196;2022-12-07T02:41:46;101664.00;;;10.40
20736;BMP180;10528;52.124;5.196;2022-12-07T02:44:21;101664.00;;;10.50
20736;BMP180;10528;52.124;5.196;2022-12-07T02:47:02;101658.00;;;10.50
20736;BMP180;10528;52.124;5.196;2022-12-07T02:49:38;101662.00;;;10.50
20736;BMP180;10528;52.124;5.196;2022-12-07T02:52:05;101655.00;;;10.50
20736;BMP180;10528;52.124;5.196;2022-12-07T02:54:32;101661.00;;;10.50
20736;BMP180;10528;52.124;5.196;2022-12-07T03:02:58;101693.00;;;10.40
20736;BMP180;10528;52.124;5.196;2022-12-07T03:08:25;101674.00;;;10.40
20736;BMP180;10528;52.124;5.196;2022-12-07T03:11:16;101657.00;;;10.40
20736;BMP180;10528;52.124;5.196;2022-12-07T03:14:05;101660.00;;;10.40
20736;BMP180;10528;52.124;5.196;2022-12-07T03:16:47;101647.00;;;10.50
20736;BMP180;10528;52.124;5.196;2022-12-07T03:19:19;101659.00;;;10.50
20736;BMP180;10528;52.124;5.196;2022-12-07T03:22:02;101651.00;;;10.50
20736;BMP180;10528;52.124;5.196;2022-12-07T03:24:37;101661.00;;;10.50
20736;BMP180;10528;52.124;5.196;2022-12-07T03:27:18;101650.00;;;10.50
20736;BMP180;10528;52.124;5.196;2022-12-07T03:29:56;101656.00;;;10.50
20736;BMP180;10528;52.124;5.196;2022-12-07T03:32:53;101650.00;;;10.50
20736;BMP180;10528;52.124;5.196;2022-12-07T03:35:30;101646.00;;;10.50
20736;BMP180;10528;52.124;5.196;2022-12-07T03:38:25;101647.00;;;10.40
20736;BMP180;10528;52.124;5.196;2022-12-07T03:43:56;101633.00;;;10.40
20736;BMP180;10528;52.124;5.196;2022-12-07T03:49:41;101640.00;;;10.30
20736;BMP180;10528;52.124;5.196;2022-12-07T03:52:58;101656.00;;;10.30
20736;BMP180;10528;52.124;5.196;2022-12-07T03:55:36;101654.00;;;10.20
20736;BMP180;10528;52.124;5.196;2022-12-07T03:58:16;101651.00;;;10.20
20736;BMP180;10528;52.124;5.196;2022-12-07T04:00:46;101650.00;;;10.20
20736;BMP180;10528;52.124;5.196;2022-12-07T04:03:13;101651.00;;;10.20
20736;BMP180;10528;52.124;5.196;2022-12-07T04:05:41;101646.00;;;10.20
20736;BMP180;10528;52.124;5.196;2022-12-07T04:08:09;101638.00;;;10.20
20736;BMP180;10528;52.124;5.196;2022-12-07T04:10:36;101642.00;;;10.20
20736;BMP180;10528;52.124;5.196;2022-12-07T04:13:03;101633.00;;;10.20
20736;BMP180;10528;52.124;5.196;2022-12-07T04:15:30;101628.00;;;10.20
20736;BMP180;10528;52.124;5.196;2022-12-07T04:17:57;101640.00;;;10.20
20736;BMP180;10528;52.124;5.196;2022-12-07T04:20:24;101637.00;;;10.20
20736;BMP180;10528;52.124;5.196;2022-12-07T04:22:50;101628.00;;;10.10
20736;BMP180;10528;52.124;5.196;2022-12-07T04:25:17;101639.00;;;10.10
20736;BMP180;10528;52.124;5.196;2022-12-07T04:27:44;101630.00;;;10.10
20736;BMP180;10528;52.124;5.196;2022-12-07T04:30:11;101644.00;;;10.00
20736;BMP180;10528;52.124;5.196;2022-12-07T04:32:38;101631.00;;;10.00
20736;BMP180;10528;52.124;5.196;2022-12-07T04:35:06;101642.00;;;10.00
20736;BMP180;10528;52.124;5.196;2022-12-07T04:37:33;101653.00;;;10.00
20736;BMP180;10528;52.124;5.196;2022-12-07T04:40:00;101641.00;;;10.00
20736;BMP180;10528;52.124;5.196;2022-12-07T04:42:27;101652.00;;;10.00
20736;BMP180;10528;52.124;5.196;2022-12-07T04:44:54;101641.00;;;10.00
20736;BMP180;10528;52.124;5.196;2022-12-07T04:47:21;101640.00;;;10.10
20736;BMP180;10528;52.124;5.196;2022-12-07T04:49:48;101638.00;;;10.10
20736;BMP180;10528;52.124;5.196;2022-12-07T04:52:14;101625.00;;;10.10
20736;BMP180;10528;52.124;5.196;2022-12-07T04:54:41;101625.00;;;10.10
20736;BMP180;10528;52.124;5.196;2022-12-07T04:57:08;101632.00;;;10.10
20736;BMP180;10528;52.124;5.196;2022-12-07T04:59:35;101622.00;;;10.20
20736;BMP180;10528;52.124;5.196;2022-12-07T05:02:08;101619.00;;;10.20
20736;BMP180;10528;52.124;5.196;2022-12-07T05:04:34;101620.00;;;10.20
20736;BMP180;10528;52.124;5.196;2022-12-07T05:07:01;101617.00;;;10.10
20736;BMP180;10528;52.124;5.196;2022-12-07T05:09:28;101621.00;;;10.10
20736;BMP180;10528;52.124;5.196;2022-12-07T05:11:55;101616.00;;;10.10
20736;BMP180;10528;52.124;5.196;2022-12-07T05:14:22;101623.00;;;10.10
20736;BMP180;10528;52.124;5.196;2022-12-07T05:16:50;101622.00;;;10.10
20736;BMP180;10528;52.124;5.196;2022-12-07T05:19:19;101616.00;;;10.10
20736;BMP180;10528;52.124;5.196;2022-12-07T05:21:46;101609.00;;;10.00
20736;BMP180;10528;52.124;5.196;2022-12-07T05:24:15;101613.00;;;10.00
20736;BMP180;10528;52.124;5.196;2022-12-07T05:26:44;101612.00;;;10.00
20736;BMP180;10528;52.124;5.196;2022-12-07T05:29:14;101612.00;;;10.00
20736;BMP180;10528;52.124;5.196;2022-12-07T05:31:42;101608.00;;;9.90
20736;BMP180;10528;52.124;5.196;2022-12-07T05:34:09;101612.00;;;9.90
20736;BMP180;10528;52.124;5.196;2022-12-07T05:36:37;101614.00;;;9.90
20736;BMP180;10528;52.124;5.196;2022-12-07T05:39:04;101609.00;;;9.80
20736;BMP180;10528;52.124;5.196;2022-12-07T05:41:31;101613.00;;;9.80
20736;BMP180;10528;52.124;5.196;2022-12-07T05:44:16;101613.00;;;9.80
20736;BMP180;10528;52.124;5.196;2022-12-07T05:46:43;101620.00;;;9.80
20736;BMP180;10528;52.124;5.196;2022-12-07T05:49:10;101623.00;;;9.70
20736;BMP180;10528;52.124;5.196;2022-12-07T05:51:37;101619.00;;;9.70
20736;BMP180;10528;52.124;5.196;2022-12-07T05:54:04;101598.00;;;9.70
20736;BMP180;10528;52.124;5.196;2022-12-07T05:56:31;101600.00;;;9.70
20736;BMP180;10528;52.124;5.196;2022-12-07T05:58:58;101620.00;;;9.70
20736;BMP180;10528;52.124;5.196;2022-12-07T06:02:04;101612.00;;;9.70
20736;BMP180;10528;52.124;5.196;2022-12-07T06:04:40;101616.00;;;9.70
20736;BMP180;10528;52.124;5.196;2022-12-07T06:07:08;101626.00;;;9.70
20736;BMP180;10528;52.124;5.196;2022-12-07T06:09:36;101618.00;;;9.70
20736;BMP180;10528;52.124;5.196;2022-12-07T06:12:04;101601.00;;;9.70
20736;BMP180;10528;52.124;5.196;2022-12-07T06:14:51;101618.00;;;9.60
20736;BMP180;10528;52.124;5.196;2022-12-07T06:17:17;101613.00;;;9.60
20736;BMP180;10528;52.124;5.196;2022-12-07T06:19:44;101618.00;;;9.60
20736;BMP180;10528;52.124;5.196;2022-12-07T06:22:11;101607.00;;;9.60
20736;BMP180;10528;52.124;5.196;2022-12-07T06:24:39;101618.00;;;9.60
20736;BMP180;10528;52.124;5.196;2022-12-07T06:27:06;101620.00;;;9.60
20736;BMP180;10528;52.124;5.196;2022-12-07T06:29:34;101614.00;;;9.60
20736;BMP180;10528;52.124;5.196;2022-12-07T06:32:01;101625.00;;;9.60
20736;BMP180;10528;52.124;5.196;2022-12-07T06:34:27;101619.00;;;9.60
20736;BMP180;10528;52.124;5.196;2022-12-07T06:36:54;101624.00;;;9.60
20736;BMP180;10528;52.124;5.196;2022-12-07T06:39:25;101614.00;;;9.60
20736;BMP180;10528;52.124;5.196;2022-12-07T06:41:52;101613.00;;;9.50
20736;BMP180;10528;52.124;5.196;2022-12-07T06:44:21;101612.00;;;9.50
20736;BMP180;10528;52.124;5.196;2022-12-07T06:46:50;101614.00;;;9.50
20736;BMP180;10528;52.124;5.196;2022-12-07T06:49:17;101604.00;;;9.50
20736;BMP180;10528;52.124;5.196;2022-12-07T06:51:44;101597.00;;;9.50
20736;BMP180;10528;52.124;5.196;2022-12-07T06:54:14;101603.00;;;9.50
20736;BMP180;10528;52.124;5.196;2022-12-07T06:56:41;101615.00;;;9.50
20736;BMP180;10528;52.124;5.196;2022-12-07T06:59:08;101628.00;;;9.50
20736;BMP180;10528;52.124;5.196;2022-12-07T07:01:35;101623.00;;;9.50
20736;BMP180;10528;52.124;5.196;2022-12-07T07:04:03;101617.00;;;9.50
20736;BMP180;10528;52.124;5.196;2022-12-07T07:06:30;101616.00;;;9.50
20736;BMP180;10528;52.124;5.196;2022-12-07T07:08:57;101599.00;;;9.50
20736;BMP180;10528;52.124;5.196;2022-12-07T07:11:24;101602.00;;;9.50
20736;BMP180;10528;52.124;5.196;2022-12-07T07:13:50;101612.00;;;9.50
20736;BMP180;10528;52.124;5.196;2022-12-07T07:16:17;101605.00;;;9.50
20736;BMP180;10528;52.124;5.196;2022-12-07T07:18:44;101617.00;;;9.50
20736;BMP180;10528;52.124;5.196;2022-12-07T07:21:11;101618.00;;;9.50
20736;BMP180;10528;52.124;5.196;2022-12-07T07:23:38;101618.00;;;9.50
20736;BMP180;10528;52.124;5.196;2022-12-07T07:26:05;101621.00;;;9.50
20736;BMP180;10528;52.124;5.196;2022-12-07T07:28:31;101622.00;;;9.50
20736;BMP180;10528;52.124;5.196;2022-12-07T07:30:58;101608.00;;;9.40
20736;BMP180;10528;52.124;5.196;2022-12-07T07:33:25;101619.00;;;9.40
20736;BMP180;10528;52.124;5.196;2022-12-07T07:35:52;101617.00;;;9.40
20736;BMP180;10528;52.124;5.196;2022-12-07T07:38:19;101612.00;;;9.40
20736;BMP180;10528;52.124;5.196;2022-12-07T07:40:46;101608.00;;;9.30
20736;BMP180;10528;52.124;5.196;2022-12-07T07:43:13;101626.00;;;9.30
20736;BMP180;10528;52.124;5.196;2022-12-07T07:45:39;101628.00;;;9.30
20736;BMP180;10528;52.124;5.196;2022-12-07T07:48:07;101624.00;;;9.30
20736;BMP180;10528;52.124;5.196;2022-12-07T07:50:34;101627.00;;;9.20
20736;BMP180;10528;52.124;5.196;2022-12-07T07:53:01;101627.00;;;9.20
20736;BMP180;10528;52.124;5.196;2022-12-07T07:55:28;101624.00;;;9.20
20736;BMP180;10528;52.124;5.196;2022-12-07T07:57:55;101615.00;;;9.20
20736;BMP180;10528;52.124;5.196;2022-12-07T08:00:22;101617.00;;;9.20
20736;BMP180;10528;52.124;5.196;2022-12-07T08:02:49;101622.00;;;9.10
20736;BMP180;10528;52.124;5.196;2022-12-07T08:05:16;101618.00;;;9.10
20736;BMP180;10528;52.124;5.196;2022-12-07T08:07:44;101615.00;;;9.10
20736;BMP180;10528;52.124;5.196;2022-12-07T08:10:13;101617.00;;;9.10
20736;BMP180;10528;52.124;5.196;2022-12-07T08:12:42;101624.00;;;9.10
20736;BMP180;10528;52.124;5.196;2022-12-07T08:15:30;101640.00;;;9.10
20736;BMP180;10528;52.124;5.196;2022-12-07T08:17:58;101649.00;;;9.10
20736;BMP180;10528;52.124;5.196;2022-12-07T08:20:26;101646.00;;;9.10
20736;BMP180;10528;52.124;5.196;2022-12-07T08:22:54;101655.00;;;9.20
20736;BMP180;10528;52.124;5.196;2022-12-07T08:25:21;101650.00;;;9.20
20736;BMP180;10528;52.124;5.196;2022-12-07T08:27:50;101655.00;;;9.20
20736;BMP180;10528;52.124;5.196;2022-12-07T08:30:18;101661.00;;;9.30
20736;BMP180;10528;52.124;5.196;2022-12-07T08:32:46;101653.00;;;9.30
20736;BMP180;10528;52.124;5.196;2022-12-07T08:35:14;101647.00;;;9.40
20736;BMP180;10528;52.124;5.196;2022-12-07T08:37:42;101649.00;;;9.40
20736;BMP180;10528;52.124;5.196;2022-12-07T08:40:11;101647.00;;;9.50
20736;BMP180;10528;52.124;5.196;2022-12-07T08:42:42;101653.00;;;9.60
20736;BMP180;10528;52.124;5.196;2022-12-07T08:45:13;101638.00;;;9.60
20736;BMP180;10528;52.124;5.196;2022-12-07T08:47:55;101641.00;;;9.70
20736;BMP180;10528;52.124;5.196;2022-12-07T08:50:24;101645.00;;;9.80
20736;BMP180;10528;52.124;5.196;2022-12-07T08:52:55;101648.00;;;9.90
20736;BMP180;10528;52.124;5.196;2022-12-07T08:55:23;101647.00;;;10.00
20736;BMP180;10528;52.124;5.196;2022-12-07T08:57:50;101649.00;;;10.00
20736;BMP180;10528;52.124;5.196;2022-12-07T09:00:18;101650.00;;;10.10
20736;BMP180;10528;52.124;5.196;2022-12-07T09:02:46;101650.00;;;10.20
20736;BMP180;10528;52.124;5.196;2022-12-07T09:05:13;101648.00;;;10.20
20736;BMP180;10528;52.124;5.196;2022-12-07T09:07:49;101651.00;;;10.20
20736;BMP180;10528;52.124;5.196;2022-12-07T09:10:17;101650.00;;;10.30
20736;BMP180;10528;52.124;5.196;2022-12-07T09:12:44;101642.00;;;10.30
20736;BMP180;10528;52.124;5.196;2022-12-07T09:15:11;101641.00;;;10.40
20736;BMP180;10528;52.124;5.196;2022-12-07T09:17:38;101635.00;;;10.50
20736;BMP180;10528;52.124;5.196;2022-12-07T09:20:06;101625.00;;;10.50
20736;BMP180;10528;52.124;5.196;2022-12-07T09:22:33;101625.00;;;10.60
20736;BMP180;10528;52.124;5.196;2022-12-07T09:25:00;101631.00;;;10.60
20736;BMP180;10528;52.124;5.196;2022-12-07T09:27:27;101641.00;;;10.60
20736;BMP180;10528;52.124;5.196;2022-12-07T09:29:54;101647.00;;;10.70
20736;BMP180;10528;52.124;5.196;2022-12-07T09:32:22;101644.00;;;10.70
20736;BMP180;10528;52.124;5.196;2022-12-07T09:34:49;101642.00;;;10.70
20736;BMP180;10528;52.124;5.196;2022-12-07T09:37:16;101646.00;;;10.80
20736;BMP180;10528;52.124;5.196;2022-12-07T09:39:43;101630.00;;;10.80
20736;BMP180;10528;52.124;5.196;2022-12-07T09:42:39;101647.00;;;10.90
20736;BMP180;10528;52.124;5.196;2022-12-07T09:47:48;101644.00;;;11.00
20736;BMP180;10528;52.124;5.196;2022-12-07T09:50:21;101643.00;;;11.10
20736;BMP180;10528;52.124;5.196;2022-12-07T09:52:50;101633.00;;;11.10
20736;BMP180;10528;52.124;5.196;2022-12-07T09:55:28;101645.00;;;11.20
20736;BMP180;10528;52.124;5.196;2022-12-07T09:57:57;101639.00;;;11.20
20736;BMP180;10528;52.124;5.196;2022-12-07T10:00:25;101635.00;;;11.30
20736;BMP180;10528;52.124;5.196;2022-12-07T10:03:02;101637.00;;;11.30
20736;BMP180;10528;52.124;5.196;2022-12-07T10:05:35;101639.00;;;11.40
20736;BMP180;10528;52.124;5.196;2022-12-07T10:08:04;101637.00;;;11.40
20736;BMP180;10528;52.124;5.196;2022-12-07T10:10:34;101623.00;;;11.50
20736;BMP180;10528;52.124;5.196;2022-12-07T10:13:14;101620.00;;;11.50
20736;BMP180;10528;52.124;5.196;2022-12-07T10:15:53;101619.00;;;11.50
20736;BMP180;10528;52.124;5.196;2022-12-07T10:18:35;101606.00;;;11.50
20736;BMP180;10528;52.124;5.196;2022-12-07T10:21:19;101605.00;;;11.50
20736;BMP180;10528;52.124;5.196;2022-12-07T10:24:04;101608.00;;;11.50
20736;BMP180;10528;52.124;5.196;2022-12-07T10:26:41;101600.00;;;11.50
20736;BMP180;10528;52.124;5.196;2022-12-07T10:29:23;101612.00;;;11.60
20736;BMP180;10528;52.124;5.196;2022-12-07T10:32:06;101602.00;;;11.60
20736;BMP180;10528;52.124;5.196;2022-12-07T10:34:50;101595.00;;;11.60
20736;BMP180;10528;52.124;5.196;2022-12-07T10:37:20;101600.00;;;11.70
20736;BMP180;10528;52.124;5.196;2022-12-07T10:42:30;101597.00;;;11.80
20736;BMP180;10528;52.124;5.196;2022-12-07T10:45:17;101589.00;;;11.80
20736;BMP180;10528;52.124;5.196;2022-12-07T10:50:49;101581.00;;;11.90
20736;BMP180;10528;52.124;5.196;2022-12-07T10:53:43;101593.00;;;12.00
20736;BMP180;10528;52.124;5.196;2022-12-07T10:56:48;101600.00;;;12.10
20736;BMP180;10528;52.124;5.196;2022-12-07T11:05:31;101585.00;;;12.20
20736;BMP180;10528;52.124;5.196;2022-12-07T11:11:55;101569.00;;;12.10
20736;BMP180;10528;52.124;5.196;2022-12-07T11:14:39;101561.00;;;12.10
20736;BMP180;10528;52.124;5.196;2022-12-07T11:20:15;101562.00;;;12.10
20736;BMP180;10528;52.124;5.196;2022-12-07T11:29:28;101561.00;;;12.10
20736;BMP180;10528;52.124;5.196;2022-12-07T11:35:27;101560.00;;;12.10
20736;BMP180;10528;52.124;5.196;2022-12-07T11:38:12;101557.00;;;12.10
20736;BMP180;10528;52.124;5.196;2022-12-07T11:40:48;101552.00;;;12.10
20736;BMP180;10528;52.124;5.196;2022-12-07T11:43:27;101539.00;;;12.10
20736;BMP180;10528;52.124;5.196;2022-12-07T11:46:17;101533.00;;;12.00
20736;BMP180;10528;52.124;5.196;2022-12-07T11:51:49;101529.00;;;12.00
20736;BMP180;10528;52.124;5.196;2022-12-07T11:54:29;101535.00;;;12.00
20736;BMP180;10528;52.124;5.196;2022-12-07T11:57:03;101538.00;;;12.00
20736;BMP180;10528;52.124;5.196;2022-12-07T11:59:45;101532.00;;;12.00
20736;BMP180;10528;52.124;5.196;2022-12-07T12:02:23;101529.00;;;12.00
20736;BMP180;10528;52.124;5.196;2022-12-07T12:05:05;101512.00;;;12.00
20736;BMP180;10528;52.124;5.196;2022-12-07T12:07:34;101522.00;;;12.00
20736;BMP180;10528;52.124;5.196;2022-12-07T12:23:15;101508.00;;;12.00
20736;BMP180;10528;52.124;5.196;2022-12-07T12:25:57;101513.00;;;12.00
20736;BMP180;10528;52.124;5.196;2022-12-07T12:28:52;101505.00;;;12.00
20736;BMP180;10528;52.124;5.196;2022-12-07T12:33:57;101492.00;;;12.10
20736;BMP180;10528;52.124;5.196;2022-12-07T12:39:19;101497.00;;;12.20
20736;BMP180;10528;52.124;5.196;2022-12-07T12:41:52;101491.00;;;12.20
20736;BMP180;10528;52.124;5.196;2022-12-07T12:46:56;101491.00;;;12.30
20736;BMP180;10528;52.124;5.196;2022-12-07T12:54:36;101482.00;;;12.50
20736;BMP180;10528;52.124;5.196;2022-12-07T13:02:38;101469.00;;;12.70
20736;BMP180;10528;52.124;5.196;2022-12-07T13:10:25;101468.00;;;12.80
20736;BMP180;10528;52.124;5.196;2022-12-07T13:23:38;101459.00;;;12.70
20736;BMP180;10528;52.124;5.196;2022-12-07T13:26:36;101452.00;;;12.70
20736;BMP180;10528;52.124;5.196;2022-12-07T13:31:47;101441.00;;;12.60
20736;BMP180;10528;52.124;5.196;2022-12-07T13:34:34;101438.00;;;12.60
20736;BMP180;10528;52.124;5.196;2022-12-07T13:37:20;101440.00;;;12.60
20736;BMP180;10528;52.124;5.196;2022-12-07T13:39:58;101444.00;;;12.60
20736;BMP180;10528;52.124;5.196;2022-12-07T13:42:31;101427.00;;;12.60
20736;BMP180;10528;52.124;5.196;2022-12-07T13:45:24;101420.00;;;12.50
20736;BMP180;10528;52.124;5.196;2022-12-07T13:48:45;101423.00;;;12.50
20736;BMP180;10528;52.124;5.196;2022-12-07T13:51:28;101426.00;;;12.50
20736;BMP180;10528;52.124;5.196;2022-12-07T13:54:01;101427.00;;;12.50
20736;BMP180;10528;52.124;5.196;2022-12-07T13:56:34;101426.00;;;12.50
20736;BMP180;10528;52.124;5.196;2022-12-07T13:59:05;101421.00;;;12.50
20736;BMP180;10528;52.124;5.196;2022-12-07T14:01:32;101422.00;;;12.50
20736;BMP180;10528;52.124;5.196;2022-12-07T14:04:41;101416.00;;;12.50
20736;BMP180;10528;52.124;5.196;2022-12-07T14:07:33;101413.00;;;12.50
20736;BMP180;10528;52.124;5.196;2022-12-07T14:10:05;101412.00;;;12.40
20736;BMP180;10528;52.124;5.196;2022-12-07T14:12:36;101400.00;;;12.50
20736;BMP180;10528;52.124;5.196;2022-12-07T14:15:03;101407.00;;;12.50
20736;BMP180;10528;52.124;5.196;2022-12-07T14:17:32;101399.00;;;12.50
20736;BMP180;10528;52.124;5.196;2022-12-07T14:20:02;101399.00;;;12.40
20736;BMP180;10528;52.124;5.196;2022-12-07T14:22:38;101398.00;;;12.40
20736;BMP180;10528;52.124;5.196;2022-12-07T14:25:22;101394.00;;;12.40
20736;BMP180;10528;52.124;5.196;2022-12-07T14:27:56;101389.00;;;12.40
20736;BMP180;10528;52.124;5.196;2022-12-07T14:30:30;101394.00;;;12.40
20736;BMP180;10528;52.124;5.196;2022-12-07T14:33:03;101382.00;;;12.40
20736;BMP180;10528;52.124;5.196;2022-12-07T14:35:31;101378.00;;;12.40
20736;BMP180;10528;52.124;5.196;2022-12-07T14:37:58;101377.00;;;12.40
20736;BMP180;10528;52.124;5.196;2022-12-07T14:40:28;101380.00;;;12.40
20736;BMP180;10528;52.124;5.196;2022-12-07T14:43:04;101380.00;;;12.40
20736;BMP180;10528;52.124;5.196;2022-12-07T14:45:31;101374.00;;;12.40
20736;BMP180;10528;52.124;5.196;2022-12-07T14:47:58;101380.00;;;12.40
20736;BMP180;10528;52.124;5.196;2022-12-07T14:50:51;101370.00;;;12.40
20736;BMP180;10528;52.124;5.196;2022-12-07T14:53:48;101374.00;;;12.30
20736;BMP180;10528;52.124;5.196;2022-12-07T14:56:24;101375.00;;;12.30
20736;BMP180;10528;52.124;5.196;2022-12-07T14:58:51;101384.00;;;12.40
20736;BMP180;10528;52.124;5.196;2022-12-07T15:01:18;101383.00;;;12.30
20736;BMP180;10528;52.124;5.196;2022-12-07T15:03:45;101378.00;;;12.30
20736;BMP180;10528;52.124;5.196;2022-12-07T15:06:17;101385.00;;;12.30
20736;BMP180;10528;52.124;5.196;2022-12-07T15:08:45;101378.00;;;12.30
20736;BMP180;10528;52.124;5.196;2022-12-07T15:11:14;101382.00;;;12.30
20736;BMP180;10528;52.124;5.196;2022-12-07T15:13:42;101381.00;;;12.30
20736;BMP180;10528;52.124;5.196;2022-12-07T15:16:28;101379.00;;;12.30
20736;BMP180;10528;52.124;5.196;2022-12-07T15:19:21;101368.00;;;12.30
20736;BMP180;10528;52.124;5.196;2022-12-07T15:21:57;101365.00;;;12.20
20736;BMP180;10528;52.124;5.196;2022-12-07T15:24:25;101370.00;;;12.20
20736;BMP180;10528;52.124;5.196;2022-12-07T15:26:53;101365.00;;;12.20
20736;BMP180;10528;52.124;5.196;2022-12-07T15:29:20;101368.00;;;12.20
20736;BMP180;10528;52.124;5.196;2022-12-07T15:31:52;101374.00;;;12.10
20736;BMP180;10528;52.124;5.196;2022-12-07T15:34:27;101360.00;;;12.10
20736;BMP180;10528;52.124;5.196;2022-12-07T15:37:05;101370.00;;;12.10
20736;BMP180;10528;52.124;5.196;2022-12-07T15:39:33;101360.00;;;12.10
20736;BMP180;10528;52.124;5.196;2022-12-07T15:42:04;101364.00;;;12.10
20736;BMP180;10528;52.124;5.196;2022-12-07T15:44:31;101360.00;;;12.10
20736;BMP180;10528;52.124;5.196;2022-12-07T15:47:17;101350.00;;;12.00
20736;BMP180;10528;52.124;5.196;2022-12-07T15:49:43;101341.00;;;12.00
20736;BMP180;10528;52.124;5.196;2022-12-07T15:52:10;101352.00;;;12.00
20736;BMP180;10528;52.124;5.196;2022-12-07T15:54:37;101356.00;;;12.00
20736;BMP180;10528;52.124;5.196;2022-12-07T15:57:04;101341.00;;;12.00
20736;BMP180;10528;52.124;5.196;2022-12-07T15:59:31;101342.00;;;12.00
20736;BMP180;10528;52.124;5.196;2022-12-07T16:01:58;101339.00;;;12.00
20736;BMP180;10528;52.124;5.196;2022-12-07T16:04:28;101343.00;;;12.00
20736;BMP180;10528;52.124;5.196;2022-12-07T16:06:56;101331.00;;;12.00
20736;BMP180;10528;52.124;5.196;2022-12-07T16:09:23;101318.00;;;12.00
20736;BMP180;10528;52.124;5.196;2022-12-07T16:11:50;101330.00;;;12.00
20736;BMP180;10528;52.124;5.196;2022-12-07T16:14:19;101322.00;;;11.90
20736;BMP180;10528;52.124;5.196;2022-12-07T16:16:45;101331.00;;;11.90
20736;BMP180;10528;52.124;5.196;2022-12-07T16:19:13;101321.00;;;11.90